Time;durP1;ratioP1;P1;durP2;ratioP2;P2;SDS_P1;SDS_P2;PMS_P1;PMS_P2;Temp;Humidity;BMP_temperature;BMP_pressure;BME280_temperature;BME280_humidity;BME280_pressure;Samples;Min_cycle;Max_cycle;Signal;HPM_P1;HPM_P2
2021/05/17 00:00:48;;;;;;;15.90;12.00;;;;;;;;;;5074575;28;20286;-74
2021/05/17 00:03:15;;;;;;;16.33;12.85;;;;;;;;;;5074652;28;20203;-73
2021/05/17 00:05:42;;;;;;;15.93;12.75;;;;;;;;;;5074603;28;20200;-73
2021/05/17 00:08:09;;;;;;;15.90;13.80;;;;;;;;;;5074566;28;20208;-73
2021/05/17 00:10:36;;;;;;;17.25;13.70;;;;;;;;;;5074503;28;20280;-72
2021/05/17 00:13:03;;;;;;;18.08;14.02;;;;;;;;;;5074561;28;20202;-73
2021/05/17 00:15:30;;;;;;;20.70;14.23;;;;;;;;;;5074363;28;20197;-73
2021/05/17 00:17:58;;;;;;;17.40;13.85;;;;;;;;;;5074543;28;20220;-73
2021/05/17 00:20:25;;;;;;;17.10;13.45;;;;;;;;;;5074615;28;20202;-72
2021/05/17 00:22:53;;;;;;;18.65;14.45;;;;;;;;;;5074273;28;20195;-73
2021/05/17 00:25:22;;;;;;;18.27;13.90;;;;;;;;;;5075070;28;20231;-72
2021/05/17 00:27:50;;;;;;;17.98;14.43;;;;;;;;;;5074554;28;20204;-72
2021/05/17 00:30:17;;;;;;;18.02;13.93;;;;;;;;;;5073822;28;20636;-72
2021/05/17 00:32:45;;;;;;;20.40;14.70;;;;;;;;;;5074368;28;20331;-73
2021/05/17 00:35:12;;;;;;;18.70;14.48;;;;;;;;;;5073727;28;20194;-73
2021/05/17 00:37:39;;;;;;;22.27;13.70;;;;;;;;;;5073930;28;20221;-72
2021/05/17 00:40:07;;;;;;;19.95;15.98;;;;;;;;;;5073918;28;20201;-72
2021/05/17 00:42:34;;;;;;;17.65;15.13;;;;;;;;;;5074313;28;20224;-73
2021/05/17 00:45:02;;;;;;;22.25;14.60;;;;;;;;;;5073587;28;20676;-72
2021/05/17 00:47:29;;;;;;;19.85;16.02;;;;;;;;;;5073592;28;20243;-72
2021/05/17 00:49:57;;;;;;;19.90;15.55;;;;;;;;;;5073491;28;20197;-73
2021/05/17 00:52:26;;;;;;;20.17;15.18;;;;;;;;;;5073790;28;20253;-72
2021/05/17 00:54:53;;;;;;;19.15;15.38;;;;;;;;;;5074107;28;20208;-73
2021/05/17 00:57:20;;;;;;;22.88;16.15;;;;;;;;;;5073139;28;20220;-73
2021/05/17 00:59:47;;;;;;;21.33;15.10;;;;;;;;;;5074014;28;20199;-73
2021/05/17 01:02:14;;;;;;;18.17;14.65;;;;;;;;;;5073246;28;20284;-73
2021/05/17 01:04:41;;;;;;;19.05;15.80;;;;;;;;;;5073501;28;20291;-73
2021/05/17 01:07:09;;;;;;;18.55;15.50;;;;;;;;;;5073078;28;20201;-73
2021/05/17 01:09:36;;;;;;;16.60;14.85;;;;;;;;;;5072899;28;20230;-73
2021/05/17 01:12:03;;;;;;;18.02;15.63;;;;;;;;;;5073275;28;20222;-73
2021/05/17 01:14:31;;;;;;;22.50;17.30;;;;;;;;;;5073058;28;20196;-72
2021/05/17 01:16:58;;;;;;;20.30;14.55;;;;;;;;;;5073031;28;20243;-72
2021/05/17 01:19:29;;;;;;;20.20;15.37;;;;;;;;;;5073456;28;20200;-72
2021/05/17 01:21:57;;;;;;;23.13;16.30;;;;;;;;;;5072699;28;20443;-72
2021/05/17 01:24:26;;;;;;;20.50;15.90;;;;;;;;;;5073038;28;20443;-72
2021/05/17 01:26:52;;;;;;;22.00;15.10;;;;;;;;;;5072596;28;20195;-73
2021/05/17 01:29:19;;;;;;;19.48;16.92;;;;;;;;;;5072832;28;20199;-72
2021/05/17 01:31:46;;;;;;;18.50;15.43;;;;;;;;;;5073551;28;20230;-73
2021/05/17 01:34:14;;;;;;;22.05;16.02;;;;;;;;;;5072802;28;20202;-73
2021/05/17 01:36:44;;;;;;;23.50;15.15;;;;;;;;;;5072374;28;20228;-73
2021/05/17 01:39:12;;;;;;;21.50;15.27;;;;;;;;;;5072973;28;20183;-72
2021/05/17 01:41:41;;;;;;;17.60;14.60;;;;;;;;;;5073036;28;20191;-72
2021/05/17 01:44:12;;;;;;;17.43;14.43;;;;;;;;;;5072765;28;20447;-72
2021/05/17 01:46:39;;;;;;;17.52;14.05;;;;;;;;;;5072484;28;20435;-72
2021/05/17 01:49:06;;;;;;;15.80;14.07;;;;;;;;;;5072486;28;20671;-73
2021/05/17 01:51:33;;;;;;;19.20;17.13;;;;;;;;;;5073563;28;20448;-73
2021/05/17 01:54:00;;;;;;;16.17;14.48;;;;;;;;;;5072854;28;20445;-73
2021/05/17 01:56:28;;;;;;;15.97;12.50;;;;;;;;;;5072739;28;20290;-73
2021/05/17 01:58:55;;;;;;;17.77;13.57;;;;;;;;;;5072884;28;20452;-73
2021/05/17 02:01:22;;;;;;;16.47;14.23;;;;;;;;;;5072354;28;20449;-73
2021/05/17 02:03:49;;;;;;;17.02;14.80;;;;;;;;;;5072339;28;20476;-73
2021/05/17 02:06:18;;;;;;;14.93;13.43;;;;;;;;;;5072288;28;20200;-72
2021/05/17 02:08:46;;;;;;;15.47;13.87;;;;;;;;;;5072499;28;20197;-72
2021/05/17 02:11:14;;;;;;;14.45;13.13;;;;;;;;;;5075708;28;20469;-72
2021/05/17 02:13:41;;;;;;;16.23;12.40;;;;;;;;;;5076004;28;20193;-72
2021/05/17 02:16:12;;;;;;;15.37;12.17;;;;;;;;;;5075829;28;20455;-72
2021/05/17 02:18:39;;;;;;;13.00;11.57;;;;;;;;;;5075965;28;20464;-73
2021/05/17 02:21:06;;;;;;;14.43;12.60;;;;;;;;;;5076445;28;20439;-73
2021/05/17 02:23:33;;;;;;;13.40;12.00;;;;;;;;;;5075822;28;20200;-73
2021/05/17 02:26:00;;;;;;;15.70;13.57;;;;;;;;;;5075735;28;20444;-72
2021/05/17 02:28:27;;;;;;;15.90;12.90;;;;;;;;;;5076128;28;20444;-72
2021/05/17 02:30:54;;;;;;;17.90;13.27;;;;;;;;;;5076039;28;20478;-72
2021/05/17 02:33:22;;;;;;;15.55;12.82;;;;;;;;;;5076413;28;20196;-73
2021/05/17 02:35:49;;;;;;;19.45;14.45;;;;;;;;;;5076016;28;20236;-73
2021/05/17 02:38:16;;;;;;;14.27;12.60;;;;;;;;;;5076100;28;20221;-72
2021/05/17 02:40:42;;;;;;;17.85;13.27;;;;;;;;;;5076367;28;20252;-72
2021/05/17 02:43:10;;;;;;;15.05;13.43;;;;;;;;;;5075626;28;20201;-72
2021/05/17 02:45:37;;;;;;;18.60;13.60;;;;;;;;;;5075387;28;20198;-72
2021/05/17 02:48:05;;;;;;;14.55;12.70;;;;;;;;;;5075607;28;20667;-72
2021/05/17 02:50:34;;;;;;;22.55;13.88;;;;;;;;;;5075414;28;20201;-72
2021/05/17 02:53:01;;;;;;;17.83;14.02;;;;;;;;;;5075654;28;20560;-72
2021/05/17 02:55:32;;;;;;;16.00;13.10;;;;;;;;;;5075220;28;20201;-72
2021/05/17 02:58:04;;;;;;;17.77;13.73;;;;;;;;;;5075912;28;20569;-72
2021/05/17 03:00:32;;;;;;;16.88;14.85;;;;;;;;;;5076087;28;20580;-72
2021/05/17 03:03:00;;;;;;;18.55;14.38;;;;;;;;;;5075800;28;20274;-73
2021/05/17 03:05:28;;;;;;;14.70;13.20;;;;;;;;;;5075609;28;20205;-73
2021/05/17 03:07:57;;;;;;;17.00;14.27;;;;;;;;;;5075227;28;20660;-73
2021/05/17 03:10:25;;;;;;;18.33;14.27;;;;;;;;;;5075729;28;20929;-73
2021/05/17 03:12:53;;;;;;;17.65;14.43;;;;;;;;;;5074818;28;20245;-73
2021/05/17 03:15:20;;;;;;;15.98;14.32;;;;;;;;;;5075302;28;20288;-73
2021/05/17 03:17:47;;;;;;;16.13;14.07;;;;;;;;;;5076701;28;20216;-73
2021/05/17 03:20:14;;;;;;;18.00;14.43;;;;;;;;;;5074511;28;20200;-73
2021/05/17 03:22:40;;;;;;;16.80;13.37;;;;;;;;;;5075091;28;20444;-73
2021/05/17 03:25:09;;;;;;;17.10;13.75;;;;;;;;;;5074832;28;20452;-73
2021/05/17 03:27:35;;;;;;;15.17;13.57;;;;;;;;;;5075206;28;20205;-72
2021/05/17 03:30:02;;;;;;;17.63;14.30;;;;;;;;;;5075009;28;20561;-73
2021/05/17 03:32:29;;;;;;;16.97;12.90;;;;;;;;;;5075079;28;20208;-73
2021/05/17 03:34:55;;;;;;;18.92;14.43;;;;;;;;;;5075035;28;20531;-73
2021/05/17 03:37:22;;;;;;;20.23;15.38;;;;;;;;;;5075214;28;20225;-73
2021/05/17 03:39:49;;;;;;;17.17;14.90;;;;;;;;;;5074575;28;20202;-73
2021/05/17 03:42:17;;;;;;;17.77;15.88;;;;;;;;;;5074672;28;20207;-73
2021/05/17 03:44:44;;;;;;;18.73;16.77;;;;;;;;;;5075052;28;20623;-72
2021/05/17 03:47:10;;;;;;;18.10;15.40;;;;;;;;;;5074641;28;20196;-72
2021/05/17 03:49:37;;;;;;;19.70;15.40;;;;;;;;;;5074552;28;20440;-74
2021/05/17 03:52:04;;;;;;;17.52;14.43;;;;;;;;;;5074262;28;20436;-73
2021/05/17 03:54:31;;;;;;;20.75;15.93;;;;;;;;;;5074521;28;20293;-73
2021/05/17 03:56:58;;;;;;;21.08;14.55;;;;;;;;;;5074414;28;20218;-73
2021/05/17 03:59:26;;;;;;;16.95;14.55;;;;;;;;;;5074028;28;20205;-73
2021/05/17 04:01:53;;;;;;;13.37;12.03;;;;;;;;;;5073976;28;20678;-74
2021/05/17 04:04:21;;;;;;;15.13;13.53;;;;;;;;;;5074052;28;20929;-74
2021/05/17 04:06:56;;;;;;;18.58;14.23;;;;;;;;;;5074282;28;20444;-73
2021/05/17 04:14:54;;;;;;;17.50;13.07;;;;;;;;;;5074199;28;20251;-73
2021/05/17 04:17:21;;;;;;;15.70;12.38;;;;;;;;;;5073967;28;20479;-72
2021/05/17 04:19:47;;;;;;;14.45;12.18;;;;;;;;;;5074280;28;20541;-73
2021/05/17 04:22:14;;;;;;;16.05;13.40;;;;;;;;;;5073978;28;20201;-74
2021/05/17 04:24:41;;;;;;;14.75;12.35;;;;;;;;;;5073669;28;20199;-76
2021/05/17 04:27:08;;;;;;;15.30;12.63;;;;;;;;;;5074260;28;20229;-76
2021/05/17 04:29:35;;;;;;;14.80;12.32;;;;;;;;;;5073470;28;20200;-75
2021/05/17 04:32:02;;;;;;;12.25;10.98;;;;;;;;;;5072185;28;20220;-76
2021/05/17 04:34:29;;;;;;;13.97;11.43;;;;;;;;;;5073541;28;20227;-75
2021/05/17 04:36:56;;;;;;;13.10;11.13;;;;;;;;;;5073613;28;20556;-75
2021/05/17 04:39:23;;;;;;;12.85;11.55;;;;;;;;;;5073689;28;20467;-75
2021/05/17 04:41:50;;;;;;;15.45;10.75;;;;;;;;;;5073630;28;20190;-77
2021/05/17 04:44:17;;;;;;;14.10;11.68;;;;;;;;;;5073201;28;20203;-75
2021/05/17 04:46:43;;;;;;;10.57;9.47;;;;;;;;;;5073746;28;20208;-76
2021/05/17 04:49:11;;;;;;;11.07;9.07;;;;;;;;;;5073588;28;20450;-74
2021/05/17 04:51:38;;;;;;;12.52;10.13;;;;;;;;;;5073546;28;20527;-75
2021/05/17 04:54:05;;;;;;;9.55;8.52;;;;;;;;;;5073892;28;20676;-74
2021/05/17 04:56:31;;;;;;;11.10;8.07;;;;;;;;;;5072966;28;20295;-74
2021/05/17 04:58:58;;;;;;;11.40;8.20;;;;;;;;;;5073531;28;20451;-75
2021/05/17 05:01:25;;;;;;;9.40;8.07;;;;;;;;;;5073051;28;20194;-75
2021/05/17 05:03:51;;;;;;;8.13;7.33;;;;;;;;;;5073258;28;20201;-75
2021/05/17 05:06:19;;;;;;;10.30;7.93;;;;;;;;;;5073421;28;20444;-76
2021/05/17 05:08:46;;;;;;;7.63;6.80;;;;;;;;;;5073343;28;20558;-77
2021/05/17 05:11:12;;;;;;;7.90;7.20;;;;;;;;;;5073430;28;20490;-76
2021/05/17 05:13:39;;;;;;;7.50;6.70;;;;;;;;;;5072772;28;20919;-77
2021/05/17 05:16:06;;;;;;;8.07;7.15;;;;;;;;;;5073720;28;20444;-77
2021/05/17 05:18:32;;;;;;;9.63;7.23;;;;;;;;;;5073295;28;20224;-76
2021/05/17 05:20:59;;;;;;;8.63;7.80;;;;;;;;;;5071650;28;20459;-76
2021/05/17 05:23:27;;;;;;;6.45;5.85;;;;;;;;;;5072984;28;20446;-76
2021/05/17 05:28:44;;;;;;;6.43;5.53;;;;;;;;;;5052354;28;20428;-75
2021/05/17 05:31:15;;;;;;;9.60;6.30;;;;;;;;;;5053040;28;20508;-75
2021/05/17 05:33:42;;;;;;;6.20;5.67;;;;;;;;;;5053145;28;20247;-76
2021/05/17 05:36:08;;;;;;;5.80;5.25;;;;;;;;;;5054229;28;20539;-76
2021/05/17 05:38:36;;;;;;;7.87;5.27;;;;;;;;;;5052749;28;20222;-72
2021/05/17 05:41:03;;;;;;;13.27;5.70;;;;;;;;;;5052795;28;20447;-73
2021/05/17 05:43:32;;;;;;;7.57;6.00;;;;;;;;;;5053388;28;20473;-74
2021/05/17 05:45:59;;;;;;;7.27;5.40;;;;;;;;;;5056951;28;20485;-74
2021/05/17 05:48:26;;;;;;;7.20;5.80;;;;;;;;;;5057559;28;20452;-73
2021/05/17 05:50:53;;;;;;;5.80;5.30;;;;;;;;;;5056392;28;20443;-74
2021/05/17 05:53:20;;;;;;;6.53;5.33;;;;;;;;;;5056927;28;20440;-74
2021/05/17 05:55:47;;;;;;;5.10;4.60;;;;;;;;;;5056973;28;20441;-73
2021/05/17 05:58:15;;;;;;;9.20;4.90;;;;;;;;;;5056533;28;20577;-73
2021/05/17 06:00:42;;;;;;;5.60;5.00;;;;;;;;;;5056756;28;20441;-73
2021/05/17 06:03:09;;;;;;;5.53;5.03;;;;;;;;;;5056583;28;20448;-74
2021/05/17 06:05:36;;;;;;;6.43;4.17;;;;;;;;;;5056088;28;20526;-73
2021/05/17 06:08:04;;;;;;;8.00;4.47;;;;;;;;;;5056475;28;20456;-74
2021/05/17 06:10:31;;;;;;;4.33;3.93;;;;;;;;;;5056350;28;20939;-73
2021/05/17 06:12:58;;;;;;;5.77;5.13;;;;;;;;;;5056331;28;20453;-73
2021/05/17 06:15:25;;;;;;;5.33;4.83;;;;;;;;;;5056698;28;20525;-74
2021/05/17 06:17:52;;;;;;;5.70;4.73;;;;;;;;;;5056136;28;20986;-73
2021/05/17 06:20:19;;;;;;;5.27;3.97;;;;;;;;;;5056289;28;20449;-73
2021/05/17 06:22:46;;;;;;;4.57;4.17;;;;;;;;;;5056376;28;20437;-74
2021/05/17 06:25:14;;;;;;;15.10;9.73;;;;;;;;;;5056091;28;20441;-74
2021/05/17 06:27:42;;;;;;;7.60;5.60;;;;;;;;;;5055742;28;20986;-74
2021/05/17 06:30:11;;;;;;;5.13;4.43;;;;;;;;;;5055930;28;20472;-73
2021/05/17 06:32:38;;;;;;;4.50;4.10;;;;;;;;;;5056156;28;20441;-73
2021/05/17 06:35:06;;;;;;;5.27;4.43;;;;;;;;;;5055689;28;20948;-73
2021/05/17 06:37:32;;;;;;;5.53;4.90;;;;;;;;;;5055507;28;20509;-73
2021/05/17 06:39:59;;;;;;;5.70;4.60;;;;;;;;;;5056246;28;20437;-73
2021/05/17 06:42:26;;;;;;;4.90;4.03;;;;;;;;;;5055806;28;20532;-73
2021/05/17 06:44:53;;;;;;;4.73;4.33;;;;;;;;;;5055570;28;20963;-73
2021/05/17 06:47:21;;;;;;;6.20;4.77;;;;;;;;;;5055768;28;20449;-73
2021/05/17 06:49:48;;;;;;;5.00;4.60;;;;;;;;;;5055675;28;20441;-74
2021/05/17 06:52:15;;;;;;;5.37;4.97;;;;;;;;;;5055708;28;20848;-74
2021/05/17 06:54:43;;;;;;;6.33;4.70;;;;;;;;;;5055288;28;20430;-74
2021/05/17 06:57:16;;;;;;;6.70;5.10;;;;;;;;;;5054551;28;20480;-74
2021/05/17 06:59:44;;;;;;;5.70;5.13;;;;;;;;;;5056139;28;20531;-74
2021/05/17 07:02:15;;;;;;;6.37;5.77;;;;;;;;;;5055791;28;20437;-74
2021/05/17 07:04:43;;;;;;;7.03;6.37;;;;;;;;;;5055203;28;20461;-73
2021/05/17 07:07:10;;;;;;;7.60;6.80;;;;;;;;;;5055354;28;20499;-73
2021/05/17 07:12:22;;;;;;;9.20;7.80;;;;;;;;;;5055460;28;20903;-74
2021/05/17 07:14:49;;;;;;;11.40;7.93;;;;;;;;;;5054909;28;20507;-74
2021/05/17 07:17:16;;;;;;;11.87;8.03;;;;;;;;;;5055513;28;20560;-74
2021/05/17 07:19:44;;;;;;;9.07;8.00;;;;;;;;;;5055145;28;20506;-73
2021/05/17 07:24:56;;;;;;;8.97;7.07;;;;;;;;;;5055133;28;20850;-74
2021/05/17 07:27:22;;;;;;;12.83;6.97;;;;;;;;;;5054929;28;20524;-74
2021/05/17 07:29:50;;;;;;;6.87;6.27;;;;;;;;;;5054894;28;21018;-74
2021/05/17 07:32:17;;;;;;;7.43;6.70;;;;;;;;;;5054671;28;20958;-73
2021/05/17 07:34:45;;;;;;;6.90;6.30;;;;;;;;;;5054529;28;20449;-73
2021/05/17 07:37:13;;;;;;;8.67;6.00;;;;;;;;;;5054742;28;20473;-74
2021/05/17 07:39:39;;;;;;;6.70;6.10;;;;;;;;;;5054719;28;20947;-74
2021/05/17 07:42:07;;;;;;;8.53;6.40;;;;;;;;;;5054666;28;20442;-74
2021/05/17 07:44:33;;;;;;;8.20;7.30;;;;;;;;;;5054511;28;20521;-74
2021/05/17 07:47:01;;;;;;;7.47;6.63;;;;;;;;;;5054521;28;20536;-74
2021/05/17 07:49:35;;;;;;;7.80;6.67;;;;;;;;;;5054233;28;20532;-74
2021/05/17 07:52:04;;;;;;;6.57;6.07;;;;;;;;;;5054515;28;20421;-74
2021/05/17 07:54:31;;;;;;;7.50;6.90;;;;;;;;;;5054394;28;20433;-73
2021/05/17 07:56:58;;;;;;;9.70;7.20;;;;;;;;;;5054298;28;20518;-73
2021/05/17 07:59:29;;;;;;;8.30;7.50;;;;;;;;;;5054352;28;20445;-74
2021/05/17 08:01:56;;;;;;;8.90;8.13;;;;;;;;;;5054945;28;20966;-74
2021/05/17 08:04:23;;;;;;;9.83;8.93;;;;;;;;;;5054803;28;20831;-73
2021/05/17 08:06:50;;;;;;;8.47;7.60;;;;;;;;;;5054102;28;20528;-73
2021/05/17 08:09:18;;;;;;;12.43;9.50;;;;;;;;;;5053877;28;20436;-74
2021/05/17 08:11:46;;;;;;;13.73;10.23;;;;;;;;;;5054454;28;20570;-74
2021/05/17 08:14:12;;;;;;;8.93;8.00;;;;;;;;;;5054378;28;20442;-74
2021/05/17 08:16:39;;;;;;;8.83;8.00;;;;;;;;;;5053662;28;20940;-74
2021/05/17 08:19:06;;;;;;;12.93;7.93;;;;;;;;;;5053840;28;21086;-74
2021/05/17 08:21:33;;;;;;;8.53;7.20;;;;;;;;;;5054099;28;20451;-74
2021/05/17 08:24:00;;;;;;;8.80;7.90;;;;;;;;;;5054222;28;20540;-73
2021/05/17 08:26:27;;;;;;;8.40;7.63;;;;;;;;;;5053601;28;20920;-74
2021/05/17 08:28:54;;;;;;;8.80;7.90;;;;;;;;;;5053732;28;20453;-73
2021/05/17 08:31:23;;;;;;;9.50;7.20;;;;;;;;;;5054386;28;20510;-74
2021/05/17 08:33:53;;;;;;;7.97;7.20;;;;;;;;;;5053746;28;20527;-73
2021/05/17 08:36:20;;;;;;;8.97;8.13;;;;;;;;;;5054069;28;20479;-74
2021/05/17 08:38:47;;;;;;;8.93;8.07;;;;;;;;;;5053385;28;20481;-73
2021/05/17 08:41:14;;;;;;;10.57;7.37;;;;;;;;;;5053464;28;20445;-75
2021/05/17 08:43:42;;;;;;;8.53;6.73;;;;;;;;;;5053995;28;20452;-70
2021/05/17 08:46:10;;;;;;;8.70;7.90;;;;;;;;;;5053741;28;20437;-71
2021/05/17 08:48:38;;;;;;;11.90;6.80;;;;;;;;;;5053292;28;20447;-71
2021/05/17 08:51:06;;;;;;;9.00;5.63;;;;;;;;;;5053509;28;20524;-71
2021/05/17 08:53:32;;;;;;;8.47;6.00;;;;;;;;;;5053233;28;20535;-72
2021/05/17 08:55:59;;;;;;;9.00;5.60;;;;;;;;;;5053106;28;20479;-72
2021/05/17 08:58:26;;;;;;;8.13;6.87;;;;;;;;;;5053536;28;20575;-71
2021/05/17 09:00:53;;;;;;;8.80;7.20;;;;;;;;;;5053968;28;20448;-71
2021/05/17 09:03:20;;;;;;;5.07;4.67;;;;;;;;;;5053246;28;21034;-72
2021/05/17 09:05:50;;;;;;;6.30;5.80;;;;;;;;;;5053248;28;20469;-71
2021/05/17 09:08:16;;;;;;;6.20;5.60;;;;;;;;;;5053649;28;20821;-72
2021/05/17 09:10:43;;;;;;;5.97;5.47;;;;;;;;;;5053289;28;20484;-72
2021/05/17 09:13:10;;;;;;;7.73;6.90;;;;;;;;;;5053383;28;20469;-73
2021/05/17 09:15:38;;;;;;;7.67;6.97;;;;;;;;;;5053028;28;20445;-72
2021/05/17 09:18:07;;;;;;;7.30;6.70;;;;;;;;;;5052345;28;20477;-72
2021/05/17 09:20:36;;;;;;;8.50;7.70;;;;;;;;;;5052558;28;20488;-73
2021/05/17 09:23:20;;;;;;;9.00;8.10;;;;;;;;;;5053181;28;20452;-72
2021/05/17 09:26:01;;;;;;;13.57;8.17;;;;;;;;;;5053512;28;20433;-73
2021/05/17 09:28:29;;;;;;;8.70;8.00;;;;;;;;;;5052805;28;20446;-73
2021/05/17 09:31:04;;;;;;;8.43;7.73;;;;;;;;;;5052853;28;21002;-75
2021/05/17 09:33:38;;;;;;;9.00;7.90;;;;;;;;;;5053167;28;20433;-74
2021/05/17 09:36:06;;;;;;;8.30;7.60;;;;;;;;;;5052563;28;20437;-73
2021/05/17 09:38:33;;;;;;;9.03;7.77;;;;;;;;;;5052750;28;20481;-75
2021/05/17 09:41:01;;;;;;;8.80;7.53;;;;;;;;;;5052295;28;20452;-73
2021/05/17 09:43:28;;;;;;;10.87;7.10;;;;;;;;;;5052479;28;20485;-74
2021/05/17 09:45:55;;;;;;;13.00;6.83;;;;;;;;;;5052775;28;20520;-73
2021/05/17 09:48:22;;;;;;;6.93;5.67;;;;;;;;;;5053371;28;20473;-75
2021/05/17 09:50:57;;;;;;;6.67;6.03;;;;;;;;;;5052488;28;20516;-74
2021/05/17 09:53:24;;;;;;;9.03;5.97;;;;;;;;;;5052673;28;20504;-74
2021/05/17 09:55:51;;;;;;;6.30;5.47;;;;;;;;;;5052976;28;20519;-74
2021/05/17 09:58:26;;;;;;;6.63;6.03;;;;;;;;;;5052550;28;20580;-74
2021/05/17 10:01:04;;;;;;;5.67;4.80;;;;;;;;;;5053323;28;20428;-75
2021/05/17 10:03:34;;;;;;;6.50;5.00;;;;;;;;;;5053231;28;20433;-76
2021/05/17 10:06:01;;;;;;;5.43;4.60;;;;;;;;;;5052997;28;20457;-76
2021/05/17 10:08:28;;;;;;;4.50;4.10;;;;;;;;;;5053013;28;20561;-75
2021/05/17 10:10:56;;;;;;;6.60;4.93;;;;;;;;;;5052509;28;20439;-74
2021/05/17 10:13:23;;;;;;;6.00;4.97;;;;;;;;;;5052282;28;20532;-75
2021/05/17 10:15:50;;;;;;;4.10;3.80;;;;;;;;;;5052262;28;20438;-75
2021/05/17 10:18:17;;;;;;;7.73;4.03;;;;;;;;;;5052102;28;20474;-75
2021/05/17 10:20:44;;;;;;;4.40;3.70;;;;;;;;;;5052725;28;20640;-75
2021/05/17 10:23:13;;;;;;;4.80;2.80;;;;;;;;;;5052869;28;20445;-76
2021/05/17 10:25:40;;;;;;;4.67;3.40;;;;;;;;;;5052336;28;20445;-75
2021/05/17 10:28:10;;;;;;;3.83;3.20;;;;;;;;;;5052215;28;20876;-75
2021/05/17 10:30:37;;;;;;;3.23;3.03;;;;;;;;;;5052955;28;20468;-75
2021/05/17 10:33:06;;;;;;;3.00;2.43;;;;;;;;;;5056191;28;20811;-75
2021/05/17 10:35:34;;;;;;;3.73;3.20;;;;;;;;;;5055954;28;20442;-74
2021/05/17 10:38:20;;;;;;;4.70;2.37;;;;;;;;;;5056189;28;20484;-75
2021/05/17 10:40:47;;;;;;;2.83;2.50;;;;;;;;;;5056626;28;20480;-75
2021/05/17 10:43:19;;;;;;;2.40;2.20;;;;;;;;;;5055776;28;20475;-75
2021/05/17 10:48:34;;;;;;;4.90;2.57;;;;;;;;;;5029895;28;20928;-74
2021/05/17 10:51:12;;;;;;;2.40;2.20;;;;;;;;;;5055891;28;20770;-74
2021/05/17 10:53:43;;;;;;;11.43;2.40;;;;;;;;;;5055729;28;20437;-74
2021/05/17 10:56:11;;;;;;;2.20;2.00;;;;;;;;;;5055788;28;20892;-74
2021/05/17 11:01:49;;;;;;;5.00;2.17;;;;;;;;;;5027609;28;20436;-75
2021/05/17 11:04:26;;;;;;;6.73;2.27;;;;;;;;;;5055576;28;20478;-75
2021/05/17 11:07:11;;;;;;;2.00;1.80;;;;;;;;;;5055227;28;20528;-74
2021/05/17 11:09:42;;;;;;;2.33;1.97;;;;;;;;;;5055242;28;20742;-75
2021/05/17 11:12:19;;;;;;;2.30;2.10;;;;;;;;;;5055152;28;20504;-74
2021/05/17 11:15:00;;;;;;;1.50;1.40;;;;;;;;;;5055001;28;20521;-74
2021/05/17 11:17:27;;;;;;;2.27;1.70;;;;;;;;;;5055771;28;20556;-75
2021/05/17 11:19:54;;;;;;;7.73;1.90;;;;;;;;;;5054949;28;20459;-74
2021/05/17 11:22:20;;;;;;;1.50;1.30;;;;;;;;;;5055324;28;20477;-74
2021/05/17 11:24:48;;;;;;;1.90;1.43;;;;;;;;;;5055551;28;20468;-75
2021/05/17 11:27:15;;;;;;;4.10;1.90;;;;;;;;;;5055176;28;20457;-75
2021/05/17 11:29:42;;;;;;;1.60;1.50;;;;;;;;;;5055276;28;20839;-74
2021/05/17 11:32:10;;;;;;;1.70;1.60;;;;;;;;;;5055451;28;20530;-75
2021/05/17 11:34:57;;;;;;;2.60;1.63;;;;;;;;;;5055315;28;20439;-75
2021/05/17 11:37:24;;;;;;;3.10;2.00;;;;;;;;;;5055243;28;20723;-74
2021/05/17 11:39:51;;;;;;;1.80;1.70;;;;;;;;;;5054979;28;20481;-74
2021/05/17 11:42:19;;;;;;;3.30;2.50;;;;;;;;;;5054450;28;20443;-74
2021/05/17 11:44:54;;;;;;;2.10;2.00;;;;;;;;;;5054542;28;20897;-74
2021/05/17 11:47:21;;;;;;;3.00;2.57;;;;;;;;;;5054549;28;20429;-74
2021/05/17 11:49:49;;;;;;;5.77;3.10;;;;;;;;;;5054357;28;20443;-73
2021/05/17 11:52:18;;;;;;;4.97;3.37;;;;;;;;;;5054784;28;20443;-75
2021/05/17 11:54:47;;;;;;;4.00;3.80;;;;;;;;;;5054386;28;20532;-75
2021/05/17 11:57:15;;;;;;;4.70;3.80;;;;;;;;;;5054390;28;20454;-75
2021/05/17 11:59:42;;;;;;;6.00;3.90;;;;;;;;;;5054301;28;20454;-74
2021/05/17 12:02:10;;;;;;;7.33;4.20;;;;;;;;;;5054280;28;20445;-74
2021/05/17 12:04:37;;;;;;;3.97;3.77;;;;;;;;;;5054517;28;20480;-74
2021/05/17 12:07:05;;;;;;;4.27;3.73;;;;;;;;;;5054117;28;20444;-74
2021/05/17 12:09:37;;;;;;;4.10;3.70;;;;;;;;;;5054361;28;20499;-74
2021/05/17 12:12:05;;;;;;;4.47;4.17;;;;;;;;;;5054266;28;20446;-74
2021/05/17 12:14:33;;;;;;;5.00;4.60;;;;;;;;;;5054302;28;20531;-74
2021/05/17 12:17:00;;;;;;;5.00;4.50;;;;;;;;;;5055196;28;20891;-77
2021/05/17 12:19:27;;;;;;;5.40;5.00;;;;;;;;;;5054008;28;20508;-77
2021/05/17 12:21:57;;;;;;;10.93;5.77;;;;;;;;;;5054012;28;20521;-76
2021/05/17 12:24:25;;;;;;;15.13;6.17;;;;;;;;;;5053989;28;20453;-76
2021/05/17 12:26:53;;;;;;;4.30;4.00;;;;;;;;;;5053753;28;20442;-72
2021/05/17 12:29:20;;;;;;;2.70;2.50;;;;;;;;;;5053623;28;20487;-71
2021/05/17 12:31:47;;;;;;;4.40;2.17;;;;;;;;;;5013963;28;20531;-71
2021/05/17 12:34:14;;;;;;;2.13;1.63;;;;;;;;;;5014370;28;20450;-69
2021/05/17 12:36:42;;;;;;;1.70;1.60;;;;;;;;;;5013931;28;20483;-69
2021/05/17 12:39:14;;;;;;;1.60;1.50;;;;;;;;;;5014269;28;20483;-69
2021/05/17 12:41:41;;;;;;;3.78;2.05;;;;;;;;;;5014473;28;20454;-70
2021/05/17 12:44:23;;;;;;;2.00;1.58;;;;;;;;;;5014540;28;20283;-69
2021/05/17 12:47:01;;;;;;;1.40;1.30;;;;;;;;;;5013832;28;20196;-74
2021/05/17 12:49:42;;;;;;;1.90;1.80;;;;;;;;;;5014222;28;20193;-75
2021/05/17 12:52:09;;;;;;;1.63;1.52;;;;;;;;;;5014030;28;20537;-75
2021/05/17 12:54:36;;;;;;;2.20;2.05;;;;;;;;;;5012951;28;20283;-75
2021/05/17 12:57:05;;;;;;;4.93;2.00;;;;;;;;;;5013854;28;20327;-75
2021/05/17 12:59:32;;;;;;;2.30;2.10;;;;;;;;;;5013981;28;20281;-76
2021/05/17 13:02:10;;;;;;;3.50;2.60;;;;;;;;;;5013781;28;20866;-75
2021/05/17 13:04:38;;;;;;;2.70;2.50;;;;;;;;;;5019676;28;20191;-77
2021/05/17 13:07:06;;;;;;;4.27;2.23;;;;;;;;;;5032954;28;20949;-75
2021/05/17 13:09:33;;;;;;;3.47;2.40;;;;;;;;;;5032910;28;21023;-75
2021/05/17 13:12:00;;;;;;;7.73;2.60;;;;;;;;;;5032986;28;20453;-77
2021/05/17 13:14:27;;;;;;;2.70;2.50;;;;;;;;;;5032902;28;21027;-75
2021/05/17 13:17:02;;;;;;;3.70;3.13;;;;;;;;;;5032690;28;20442;-75
2021/05/17 13:22:49;;;;;;;5.00;3.10;;;;;;;;;;5032958;28;20411;-75
2021/05/17 13:30:52;;;;;;;4.10;3.70;;;;;;;;;;5057690;28;20467;-75
2021/05/17 13:33:20;;;;;;;4.03;3.73;;;;;;;;;;5073509;28;20483;-74
2021/05/17 13:35:50;;;;;;;4.23;3.83;;;;;;;;;;5072481;28;20436;-75
2021/05/17 13:38:17;;;;;;;3.10;2.90;;;;;;;;;;5072976;28;20552;-75
2021/05/17 13:40:44;;;;;;;4.80;3.67;;;;;;;;;;5073579;28;20435;-75
2021/05/17 13:43:10;;;;;;;8.73;4.13;;;;;;;;;;5073081;28;20808;-75
2021/05/17 13:45:37;;;;;;;5.30;4.03;;;;;;;;;;5072929;28;20545;-76
2021/05/17 13:48:04;;;;;;;4.80;3.67;;;;;;;;;;5072621;28;20513;-76
2021/05/17 13:50:31;;;;;;;8.73;3.30;;;;;;;;;;5072930;28;20527;-75
2021/05/17 13:52:58;;;;;;;4.40;3.90;;;;;;;;;;5073353;28;20444;-74
2021/05/17 13:55:25;;;;;;;9.13;4.13;;;;;;;;;;5073373;28;20475;-75
2021/05/17 13:57:52;;;;;;;6.10;4.07;;;;;;;;;;5072465;28;20559;-74
2021/05/17 14:00:20;;;;;;;4.80;4.30;;;;;;;;;;5072456;28;20503;-74
2021/05/17 14:02:46;;;;;;;4.80;4.23;;;;;;;;;;5072407;28;20436;-75
2021/05/17 14:05:14;;;;;;;5.60;4.90;;;;;;;;;;5074211;28;20540;-75
2021/05/17 14:07:41;;;;;;;6.00;5.40;;;;;;;;;;5077039;28;20448;-78
2021/05/17 14:10:09;;;;;;;5.90;5.30;;;;;;;;;;5076752;28;20441;-76
2021/05/17 14:12:37;;;;;;;6.20;5.20;;;;;;;;;;5076539;28;20562;-75
2021/05/17 14:15:05;;;;;;;7.10;5.20;;;;;;;;;;5076346;28;20555;-75
2021/05/17 14:17:32;;;;;;;6.83;4.63;;;;;;;;;;5076313;28;20447;-76
2021/05/17 14:19:59;;;;;;;4.83;4.33;;;;;;;;;;5076529;28;20440;-75
2021/05/17 14:22:26;;;;;;;5.63;5.20;;;;;;;;;;5075982;28;20454;-75
2021/05/17 14:24:52;;;;;;;5.57;5.17;;;;;;;;;;5075969;28;20445;-76
2021/05/17 14:27:20;;;;;;;6.23;4.97;;;;;;;;;;5076294;28;20826;-77
2021/05/17 14:29:47;;;;;;;5.83;5.40;;;;;;;;;;5075998;28;20527;-75
2021/05/17 14:32:13;;;;;;;4.70;4.30;;;;;;;;;;5076344;28;20558;-77
2021/05/17 14:34:40;;;;;;;5.27;4.80;;;;;;;;;;5076116;28;20449;-76
2021/05/17 14:37:08;;;;;;;7.07;6.10;;;;;;;;;;5075936;28;20440;-75
2021/05/17 14:39:34;;;;;;;8.47;5.00;;;;;;;;;;5075993;28;20491;-76
2021/05/17 14:42:01;;;;;;;5.60;4.73;;;;;;;;;;5075787;28;20982;-75
2021/05/17 14:44:29;;;;;;;4.33;3.93;;;;;;;;;;5076647;28;20445;-76
2021/05/17 14:46:56;;;;;;;5.10;4.70;;;;;;;;;;5075846;28;20453;-76
2021/05/17 14:49:22;;;;;;;5.87;5.33;;;;;;;;;;5076020;28;20826;-76
2021/05/17 14:51:49;;;;;;;4.60;4.30;;;;;;;;;;5075823;28;20455;-76
2021/05/17 14:54:16;;;;;;;6.03;5.47;;;;;;;;;;5076088;28;20444;-77
2021/05/17 14:56:43;;;;;;;6.03;5.37;;;;;;;;;;5075874;28;20441;-76
2021/05/17 14:59:10;;;;;;;5.60;5.20;;;;;;;;;;5075900;28;20962;-76
2021/05/17 15:01:38;;;;;;;5.43;4.90;;;;;;;;;;5075751;28;20480;-75
2021/05/17 15:04:05;;;;;;;6.00;5.50;;;;;;;;;;5075324;28;20943;-75
2021/05/17 15:06:36;;;;;;;10.40;6.57;;;;;;;;;;5075546;28;20531;-75